sensor_id;sensor_type;location;lat;lon;timestamp;P1;durP1;ratioP1;P2;durP2;ratioP2
8050;SDS011;4068;42.158;24.732;2023-07-13T00:01:28;15.25;;;10.45;;
8050;SDS011;4068;42.158;24.732;2023-07-13T00:03:55;16.05;;;10.55;;
8050;SDS011;4068;42.158;24.732;2023-07-13T00:06:21;17.45;;;11.70;;
8050;SDS011;4068;42.158;24.732;2023-07-13T00:08:47;16.33;;;10.98;;
8050;SDS011;4068;42.158;24.732;2023-07-13T00:11:14;16.42;;;11.38;;
8050;SDS011;4068;42.158;24.732;2023-07-13T00:13:40;19.95;;;11.82;;
8050;SDS011;4068;42.158;24.732;2023-07-13T00:16:07;20.58;;;13.05;;
8050;SDS011;4068;42.158;24.732;2023-07-13T00:18:34;20.05;;;11.82;;
8050;SDS011;4068;42.158;24.732;2023-07-13T00:20:59;18.58;;;12.10;;
8050;SDS011;4068;42.158;24.732;2023-07-13T00:23:30;22.65;;;12.18;;
8050;SDS011;4068;42.158;24.732;2023-07-13T00:26:01;19.08;;;11.98;;
8050;SDS011;4068;42.158;24.732;2023-07-13T00:28:28;17.95;;;11.70;;
8050;SDS011;4068;42.158;24.732;2023-07-13T00:30:54;15.52;;;10.20;;
8050;SDS011;4068;42.158;24.732;2023-07-13T00:33:19;16.63;;;11.27;;
8050;SDS011;4068;42.158;24.732;2023-07-13T00:35:45;16.23;;;10.98;;
8050;SDS011;4068;42.158;24.732;2023-07-13T00:38:11;13.60;;;10.73;;
8050;SDS011;4068;42.158;24.732;2023-07-13T00:40:36;16.15;;;11.25;;
8050;SDS011;4068;42.158;24.732;2023-07-13T00:43:02;16.50;;;10.45;;
8050;SDS011;4068;42.158;24.732;2023-07-13T00:47:55;15.93;;;10.43;;
8050;SDS011;4068;42.158;24.732;2023-07-13T00:50:22;14.52;;;10.57;;
8050;SDS011;4068;42.158;24.732;2023-07-13T00:52:50;18.70;;;9.75;;
8050;SDS011;4068;42.158;24.732;2023-07-13T00:55:19;11.32;;;9.15;;
8050;SDS011;4068;42.158;24.732;2023-07-13T00:57:46;16.20;;;9.77;;
8050;SDS011;4068;42.158;24.732;2023-07-13T01:00:12;26.63;;;11.43;;
8050;SDS011;4068;42.158;24.732;2023-07-13T01:02:38;10.95;;;9.18;;
8050;SDS011;4068;42.158;24.732;2023-07-13T01:05:10;12.10;;;7.90;;
8050;SDS011;4068;42.158;24.732;2023-07-13T01:07:36;11.90;;;9.00;;
8050;SDS011;4068;42.158;24.732;2023-07-13T01:10:02;10.90;;;7.95;;
8050;SDS011;4068;42.158;24.732;2023-07-13T01:12:28;9.70;;;8.18;;
8050;SDS011;4068;42.158;24.732;2023-07-13T01:14:57;10.73;;;8.20;;
8050;SDS011;4068;42.158;24.732;2023-07-13T01:17:25;9.85;;;8.20;;
8050;SDS011;4068;42.158;24.732;2023-07-13T01:19:51;10.15;;;8.00;;
8050;SDS011;4068;42.158;24.732;2023-07-13T01:22:18;12.32;;;9.32;;
8050;SDS011;4068;42.158;24.732;2023-07-13T01:24:45;17.20;;;8.98;;
8050;SDS011;4068;42.158;24.732;2023-07-13T01:27:13;10.20;;;8.02;;
8050;SDS011;4068;42.158;24.732;2023-07-13T01:29:41;11.82;;;8.00;;
8050;SDS011;4068;42.158;24.732;2023-07-13T01:32:09;14.05;;;8.35;;
8050;SDS011;4068;42.158;24.732;2023-07-13T01:34:35;12.02;;;8.98;;
8050;SDS011;4068;42.158;24.732;2023-07-13T01:37:02;13.32;;;8.80;;
8050;SDS011;4068;42.158;24.732;2023-07-13T01:39:29;13.43;;;8.90;;
8050;SDS011;4068;42.158;24.732;2023-07-13T01:41:54;10.98;;;8.77;;
8050;SDS011;4068;42.158;24.732;2023-07-13T01:44:20;11.10;;;9.18;;
8050;SDS011;4068;42.158;24.732;2023-07-13T01:46:45;12.90;;;8.60;;
8050;SDS011;4068;42.158;24.732;2023-07-13T01:49:11;11.25;;;9.65;;
8050;SDS011;4068;42.158;24.732;2023-07-13T01:51:36;15.00;;;9.00;;
8050;SDS011;4068;42.158;24.732;2023-07-13T01:54:01;12.07;;;9.75;;
8050;SDS011;4068;42.158;24.732;2023-07-13T01:56:27;11.35;;;9.40;;
8050;SDS011;4068;42.158;24.732;2023-07-13T01:58:52;14.75;;;9.35;;
8050;SDS011;4068;42.158;24.732;2023-07-13T02:01:18;13.63;;;9.90;;
8050;SDS011;4068;42.158;24.732;2023-07-13T02:03:43;13.00;;;9.02;;
8050;SDS011;4068;42.158;24.732;2023-07-13T02:06:09;10.43;;;9.10;;
8050;SDS011;4068;42.158;24.732;2023-07-13T02:08:34;11.32;;;9.52;;
8050;SDS011;4068;42.158;24.732;2023-07-13T02:11:00;14.82;;;9.82;;
8050;SDS011;4068;42.158;24.732;2023-07-13T02:13:27;12.65;;;9.75;;
8050;SDS011;4068;42.158;24.732;2023-07-13T02:15:53;10.65;;;9.35;;
8050;SDS011;4068;42.158;24.732;2023-07-13T02:18:18;11.40;;;9.25;;
8050;SDS011;4068;42.158;24.732;2023-07-13T02:20:44;13.88;;;9.57;;
8050;SDS011;4068;42.158;24.732;2023-07-13T02:23:10;11.35;;;9.18;;
8050;SDS011;4068;42.158;24.732;2023-07-13T02:25:36;13.77;;;9.25;;
8050;SDS011;4068;42.158;24.732;2023-07-13T02:28:01;16.10;;;9.90;;
8050;SDS011;4068;42.158;24.732;2023-07-13T02:30:27;10.88;;;9.25;;
8050;SDS011;4068;42.158;24.732;2023-07-13T02:32:55;12.57;;;9.57;;
8050;SDS011;4068;42.158;24.732;2023-07-13T02:35:20;11.20;;;9.18;;
8050;SDS011;4068;42.158;24.732;2023-07-13T02:37:46;12.20;;;9.73;;
8050;SDS011;4068;42.158;24.732;2023-07-13T02:40:11;13.40;;;9.48;;
8050;SDS011;4068;42.158;24.732;2023-07-13T02:42:37;13.30;;;9.43;;
8050;SDS011;4068;42.158;24.732;2023-07-13T02:45:03;11.55;;;10.00;;
8050;SDS011;4068;42.158;24.732;2023-07-13T02:47:28;13.10;;;9.68;;
8050;SDS011;4068;42.158;24.732;2023-07-13T02:49:54;14.68;;;10.18;;
8050;SDS011;4068;42.158;24.732;2023-07-13T02:52:19;13.52;;;9.23;;
8050;SDS011;4068;42.158;24.732;2023-07-13T02:54:45;13.15;;;9.85;;
8050;SDS011;4068;42.158;24.732;2023-07-13T02:57:10;10.77;;;8.70;;
8050;SDS011;4068;42.158;24.732;2023-07-13T02:59:36;13.25;;;9.30;;
8050;SDS011;4068;42.158;24.732;2023-07-13T03:02:02;12.05;;;8.57;;
8050;SDS011;4068;42.158;24.732;2023-07-13T03:04:28;11.38;;;9.43;;
8050;SDS011;4068;42.158;24.732;2023-07-13T03:06:53;20.27;;;10.60;;
8050;SDS011;4068;42.158;24.732;2023-07-13T03:09:22;14.80;;;9.68;;
8050;SDS011;4068;42.158;24.732;2023-07-13T03:11:49;13.13;;;9.23;;
8050;SDS011;4068;42.158;24.732;2023-07-13T03:14:16;12.38;;;8.85;;
8050;SDS011;4068;42.158;24.732;2023-07-13T03:16:42;14.30;;;9.30;;
8050;SDS011;4068;42.158;24.732;2023-07-13T03:19:07;12.23;;;8.52;;
8050;SDS011;4068;42.158;24.732;2023-07-13T03:21:33;15.25;;;9.48;;
8050;SDS011;4068;42.158;24.732;2023-07-13T03:23:58;13.00;;;9.23;;
8050;SDS011;4068;42.158;24.732;2023-07-13T03:26:24;13.80;;;8.10;;
8050;SDS011;4068;42.158;24.732;2023-07-13T03:28:49;13.05;;;8.30;;
8050;SDS011;4068;42.158;24.732;2023-07-13T03:31:22;12.23;;;9.05;;
8050;SDS011;4068;42.158;24.732;2023-07-13T03:33:53;13.52;;;8.68;;
8050;SDS011;4068;42.158;24.732;2023-07-13T03:36:21;15.82;;;8.45;;
8050;SDS011;4068;42.158;24.732;2023-07-13T03:38:53;15.63;;;8.35;;
8050;SDS011;4068;42.158;24.732;2023-07-13T03:41:21;17.42;;;8.48;;
8050;SDS011;4068;42.158;24.732;2023-07-13T03:43:47;11.15;;;7.43;;
8050;SDS011;4068;42.158;24.732;2023-07-13T03:46:13;12.18;;;8.40;;
8050;SDS011;4068;42.158;24.732;2023-07-13T03:48:40;14.05;;;7.70;;
8050;SDS011;4068;42.158;24.732;2023-07-13T03:51:09;12.75;;;8.35;;
8050;SDS011;4068;42.158;24.732;2023-07-13T03:53:40;12.80;;;8.15;;
8050;SDS011;4068;42.158;24.732;2023-07-13T03:56:07;12.50;;;8.30;;
8050;SDS011;4068;42.158;24.732;2023-07-13T03:58:34;13.85;;;9.10;;
8050;SDS011;4068;42.158;24.732;2023-07-13T04:01:01;11.32;;;8.23;;
8050;SDS011;4068;42.158;24.732;2023-07-13T04:03:29;11.80;;;8.75;;
8050;SDS011;4068;42.158;24.732;2023-07-13T04:05:57;10.23;;;7.70;;
8050;SDS011;4068;42.158;24.732;2023-07-13T04:08:24;15.73;;;9.43;;
8050;SDS011;4068;42.158;24.732;2023-07-13T04:10:51;12.00;;;8.15;;
8050;SDS011;4068;42.158;24.732;2023-07-13T04:13:16;12.13;;;9.15;;
8050;SDS011;4068;42.158;24.732;2023-07-13T04:15:42;12.85;;;9.35;;
8050;SDS011;4068;42.158;24.732;2023-07-13T04:18:07;13.18;;;9.07;;
8050;SDS011;4068;42.158;24.732;2023-07-13T04:20:34;13.90;;;9.55;;
8050;SDS011;4068;42.158;24.732;2023-07-13T04:22:59;16.08;;;10.27;;
8050;SDS011;4068;42.158;24.732;2023-07-13T04:25:24;14.75;;;9.80;;
8050;SDS011;4068;42.158;24.732;2023-07-13T04:27:50;12.55;;;9.30;;
8050;SDS011;4068;42.158;24.732;2023-07-13T04:30:16;16.10;;;10.13;;
8050;SDS011;4068;42.158;24.732;2023-07-13T04:32:41;16.80;;;10.20;;
8050;SDS011;4068;42.158;24.732;2023-07-13T04:35:06;13.75;;;10.90;;
8050;SDS011;4068;42.158;24.732;2023-07-13T04:37:32;18.13;;;9.60;;
8050;SDS011;4068;42.158;24.732;2023-07-13T04:39:58;14.48;;;10.18;;
8050;SDS011;4068;42.158;24.732;2023-07-13T04:42:23;16.48;;;10.30;;
8050;SDS011;4068;42.158;24.732;2023-07-13T04:44:49;15.32;;;10.68;;
8050;SDS011;4068;42.158;24.732;2023-07-13T04:47:15;16.75;;;10.88;;
8050;SDS011;4068;42.158;24.732;2023-07-13T04:49:41;17.92;;;10.65;;
8050;SDS011;4068;42.158;24.732;2023-07-13T04:52:07;15.68;;;10.88;;
8050;SDS011;4068;42.158;24.732;2023-07-13T04:54:33;16.75;;;11.23;;
8050;SDS011;4068;42.158;24.732;2023-07-13T04:56:59;21.20;;;12.05;;
8050;SDS011;4068;42.158;24.732;2023-07-13T04:59:25;14.68;;;11.35;;
8050;SDS011;4068;42.158;24.732;2023-07-13T05:01:50;14.77;;;12.55;;
8050;SDS011;4068;42.158;24.732;2023-07-13T05:04:16;23.80;;;11.18;;
8050;SDS011;4068;42.158;24.732;2023-07-13T05:06:42;17.88;;;11.60;;
8050;SDS011;4068;42.158;24.732;2023-07-13T05:09:07;19.08;;;11.32;;
8050;SDS011;4068;42.158;24.732;2023-07-13T05:11:33;16.88;;;11.00;;
8050;SDS011;4068;42.158;24.732;2023-07-13T05:13:58;13.73;;;10.52;;
8050;SDS011;4068;42.158;24.732;2023-07-13T05:16:23;18.42;;;10.90;;
8050;SDS011;4068;42.158;24.732;2023-07-13T05:18:49;16.58;;;11.43;;
8050;SDS011;4068;42.158;24.732;2023-07-13T05:21:14;19.55;;;12.18;;
8050;SDS011;4068;42.158;24.732;2023-07-13T05:23:40;17.30;;;10.80;;
8050;SDS011;4068;42.158;24.732;2023-07-13T05:26:08;18.15;;;11.32;;
8050;SDS011;4068;42.158;24.732;2023-07-13T05:28:34;16.42;;;10.63;;
8050;SDS011;4068;42.158;24.732;2023-07-13T05:30:59;14.90;;;10.95;;
8050;SDS011;4068;42.158;24.732;2023-07-13T05:33:25;16.50;;;11.00;;
8050;SDS011;4068;42.158;24.732;2023-07-13T05:35:51;19.42;;;11.13;;
8050;SDS011;4068;42.158;24.732;2023-07-13T05:38:16;17.42;;;11.25;;
8050;SDS011;4068;42.158;24.732;2023-07-13T05:40:43;14.88;;;11.10;;
8050;SDS011;4068;42.158;24.732;2023-07-13T05:43:09;13.02;;;10.60;;
8050;SDS011;4068;42.158;24.732;2023-07-13T05:45:35;14.52;;;10.60;;
8050;SDS011;4068;42.158;24.732;2023-07-13T05:48:00;20.30;;;10.88;;
8050;SDS011;4068;42.158;24.732;2023-07-13T05:50:26;17.10;;;10.23;;
8050;SDS011;4068;42.158;24.732;2023-07-13T05:52:51;37.53;;;12.20;;
8050;SDS011;4068;42.158;24.732;2023-07-13T05:55:17;17.02;;;10.15;;
8050;SDS011;4068;42.158;24.732;2023-07-13T05:57:43;15.90;;;10.25;;
8050;SDS011;4068;42.158;24.732;2023-07-13T06:00:09;14.98;;;10.30;;
8050;SDS011;4068;42.158;24.732;2023-07-13T06:02:35;14.77;;;10.18;;
8050;SDS011;4068;42.158;24.732;2023-07-13T06:05:00;14.98;;;9.75;;
8050;SDS011;4068;42.158;24.732;2023-07-13T06:07:26;16.10;;;9.60;;
8050;SDS011;4068;42.158;24.732;2023-07-13T06:09:51;17.23;;;10.75;;
8050;SDS011;4068;42.158;24.732;2023-07-13T06:12:17;16.00;;;10.30;;
8050;SDS011;4068;42.158;24.732;2023-07-13T06:14:42;13.07;;;9.63;;
8050;SDS011;4068;42.158;24.732;2023-07-13T06:17:08;13.77;;;9.20;;
8050;SDS011;4068;42.158;24.732;2023-07-13T06:19:34;16.42;;;9.85;;
8050;SDS011;4068;42.158;24.732;2023-07-13T06:21:59;13.77;;;9.70;;
8050;SDS011;4068;42.158;24.732;2023-07-13T06:24:25;18.77;;;9.75;;
8050;SDS011;4068;42.158;24.732;2023-07-13T06:26:51;15.48;;;9.90;;
8050;SDS011;4068;42.158;24.732;2023-07-13T06:29:16;14.73;;;9.52;;
8050;SDS011;4068;42.158;24.732;2023-07-13T06:31:42;12.73;;;9.07;;
8050;SDS011;4068;42.158;24.732;2023-07-13T06:34:07;16.63;;;8.95;;
8050;SDS011;4068;42.158;24.732;2023-07-13T06:36:33;13.40;;;9.35;;
8050;SDS011;4068;42.158;24.732;2023-07-13T06:38:58;17.73;;;9.80;;
8050;SDS011;4068;42.158;24.732;2023-07-13T06:41:24;12.05;;;8.93;;
8050;SDS011;4068;42.158;24.732;2023-07-13T06:43:51;11.55;;;8.43;;
8050;SDS011;4068;42.158;24.732;2023-07-13T06:46:17;11.57;;;9.80;;
8050;SDS011;4068;42.158;24.732;2023-07-13T06:48:43;20.10;;;9.60;;
8050;SDS011;4068;42.158;24.732;2023-07-13T06:51:08;16.58;;;9.23;;
8050;SDS011;4068;42.158;24.732;2023-07-13T06:53:34;15.20;;;9.02;;
8050;SDS011;4068;42.158;24.732;2023-07-13T06:55:59;11.88;;;8.50;;
8050;SDS011;4068;42.158;24.732;2023-07-13T06:58:24;14.82;;;9.13;;
8050;SDS011;4068;42.158;24.732;2023-07-13T07:00:50;12.07;;;8.93;;
8050;SDS011;4068;42.158;24.732;2023-07-13T07:03:17;11.82;;;8.98;;
8050;SDS011;4068;42.158;24.732;2023-07-13T07:05:42;11.98;;;9.23;;
8050;SDS011;4068;42.158;24.732;2023-07-13T07:08:08;9.57;;;8.60;;
8050;SDS011;4068;42.158;24.732;2023-07-13T07:10:33;11.73;;;8.40;;
8050;SDS011;4068;42.158;24.732;2023-07-13T07:12:59;9.45;;;8.40;;
8050;SDS011;4068;42.158;24.732;2023-07-13T07:15:25;13.30;;;8.55;;
8050;SDS011;4068;42.158;24.732;2023-07-13T07:17:52;13.65;;;8.80;;
8050;SDS011;4068;42.158;24.732;2023-07-13T07:20:17;13.07;;;8.35;;
8050;SDS011;4068;42.158;24.732;2023-07-13T07:22:43;10.95;;;9.15;;
8050;SDS011;4068;42.158;24.732;2023-07-13T07:25:08;9.43;;;8.40;;
8050;SDS011;4068;42.158;24.732;2023-07-13T07:27:33;9.90;;;8.90;;
8050;SDS011;4068;42.158;24.732;2023-07-13T07:29:59;15.02;;;8.80;;
8050;SDS011;4068;42.158;24.732;2023-07-13T07:32:25;11.13;;;7.97;;
8050;SDS011;4068;42.158;24.732;2023-07-13T07:34:50;10.10;;;8.13;;
8050;SDS011;4068;42.158;24.732;2023-07-13T07:37:16;8.90;;;8.00;;
8050;SDS011;4068;42.158;24.732;2023-07-13T07:39:42;9.73;;;8.00;;
8050;SDS011;4068;42.158;24.732;2023-07-13T07:42:08;10.60;;;7.72;;
8050;SDS011;4068;42.158;24.732;2023-07-13T07:44:34;11.20;;;7.90;;
8050;SDS011;4068;42.158;24.732;2023-07-13T07:47:00;11.48;;;7.65;;
8050;SDS011;4068;42.158;24.732;2023-07-13T07:49:25;12.70;;;7.65;;
8050;SDS011;4068;42.158;24.732;2023-07-13T07:51:51;18.98;;;8.10;;
8050;SDS011;4068;42.158;24.732;2023-07-13T07:54:16;12.32;;;7.80;;
8050;SDS011;4068;42.158;24.732;2023-07-13T07:56:42;11.70;;;7.88;;
8050;SDS011;4068;42.158;24.732;2023-07-13T07:59:08;11.50;;;8.50;;
8050;SDS011;4068;42.158;24.732;2023-07-13T08:01:34;9.77;;;7.80;;
8050;SDS011;4068;42.158;24.732;2023-07-13T08:03:59;12.98;;;8.48;;
8050;SDS011;4068;42.158;24.732;2023-07-13T08:06:25;13.05;;;8.57;;
8050;SDS011;4068;42.158;24.732;2023-07-13T08:08:50;14.02;;;8.00;;
8050;SDS011;4068;42.158;24.732;2023-07-13T08:11:16;12.82;;;8.20;;
8050;SDS011;4068;42.158;24.732;2023-07-13T08:13:41;11.45;;;8.93;;
8050;SDS011;4068;42.158;24.732;2023-07-13T08:16:07;10.95;;;7.88;;
8050;SDS011;4068;42.158;24.732;2023-07-13T08:18:32;8.45;;;7.63;;
8050;SDS011;4068;42.158;24.732;2023-07-13T08:20:58;8.85;;;7.93;;
8050;SDS011;4068;42.158;24.732;2023-07-13T08:23:27;12.82;;;9.20;;
8050;SDS011;4068;42.158;24.732;2023-07-13T08:25:53;11.18;;;7.38;;
8050;SDS011;4068;42.158;24.732;2023-07-13T08:28:19;11.68;;;7.97;;
8050;SDS011;4068;42.158;24.732;2023-07-13T08:30:48;10.93;;;8.10;;
8050;SDS011;4068;42.158;24.732;2023-07-13T08:33:15;11.40;;;7.90;;
8050;SDS011;4068;42.158;24.732;2023-07-13T08:35:41;14.77;;;8.05;;
8050;SDS011;4068;42.158;24.732;2023-07-13T08:38:06;12.35;;;8.57;;
8050;SDS011;4068;42.158;24.732;2023-07-13T08:40:31;13.30;;;8.55;;
8050;SDS011;4068;42.158;24.732;2023-07-13T08:42:58;13.85;;;8.52;;
8050;SDS011;4068;42.158;24.732;2023-07-13T08:48:11;12.25;;;7.70;;
8050;SDS011;4068;42.158;24.732;2023-07-13T08:50:49;8.60;;;7.28;;
8050;SDS011;4068;42.158;24.732;2023-07-13T08:53:22;14.88;;;7.78;;
8050;SDS011;4068;42.158;24.732;2023-07-13T08:55:51;11.07;;;7.07;;
8050;SDS011;4068;42.158;24.732;2023-07-13T08:58:23;8.38;;;6.82;;
8050;SDS011;4068;42.158;24.732;2023-07-13T09:01:39;8.30;;;6.00;;
8050;SDS011;4068;42.158;24.732;2023-07-13T09:03:55;10.45;;;7.03;;
8050;SDS011;4068;42.158;24.732;2023-07-13T09:06:23;12.13;;;7.15;;
8050;SDS011;4068;42.158;24.732;2023-07-13T09:09:05;12.40;;;7.22;;
8050;SDS011;4068;42.158;24.732;2023-07-13T09:11:58;13.02;;;7.20;;
8050;SDS011;4068;42.158;24.732;2023-07-13T09:16:57;8.80;;;6.50;;
8050;SDS011;4068;42.158;24.732;2023-07-13T09:19:26;6.10;;;5.38;;
8050;SDS011;4068;42.158;24.732;2023-07-13T09:21:55;7.00;;;5.90;;
8050;SDS011;4068;42.158;24.732;2023-07-13T09:27:12;8.25;;;6.05;;
8050;SDS011;4068;42.158;24.732;2023-07-13T09:29:45;10.52;;;6.40;;
8050;SDS011;4068;42.158;24.732;2023-07-13T09:32:14;7.15;;;6.03;;
8050;SDS011;4068;42.158;24.732;2023-07-13T09:34:55;7.72;;;5.95;;
8050;SDS011;4068;42.158;24.732;2023-07-13T09:37:21;7.15;;;6.30;;
8050;SDS011;4068;42.158;24.732;2023-07-13T09:39:53;10.57;;;7.88;;
8050;SDS011;4068;42.158;24.732;2023-07-13T09:42:21;8.85;;;6.40;;
8050;SDS011;4068;42.158;24.732;2023-07-13T09:47:17;7.95;;;6.00;;
8050;SDS011;4068;42.158;24.732;2023-07-13T09:49:48;9.80;;;5.78;;
8050;SDS011;4068;42.158;24.732;2023-07-13T09:52:20;9.02;;;6.13;;
8050;SDS011;4068;42.158;24.732;2023-07-13T09:54:46;12.43;;;7.00;;
8050;SDS011;4068;42.158;24.732;2023-07-13T09:57:18;22.10;;;7.88;;
8050;SDS011;4068;42.158;24.732;2023-07-13T09:59:48;9.63;;;6.05;;
8050;SDS011;4068;42.158;24.732;2023-07-13T10:04:59;12.77;;;6.30;;
8050;SDS011;4068;42.158;24.732;2023-07-13T10:07:28;10.48;;;6.07;;
8050;SDS011;4068;42.158;24.732;2023-07-13T10:09:55;7.95;;;5.38;;
8050;SDS011;4068;42.158;24.732;2023-07-13T10:12:22;9.57;;;5.70;;
8050;SDS011;4068;42.158;24.732;2023-07-13T10:14:54;8.82;;;5.30;;
8050;SDS011;4068;42.158;24.732;2023-07-13T10:17:25;10.20;;;5.03;;
8050;SDS011;4068;42.158;24.732;2023-07-13T10:19:57;8.25;;;5.13;;
8050;SDS011;4068;42.158;24.732;2023-07-13T10:25:19;5.80;;;4.65;;
8050;SDS011;4068;42.158;24.732;2023-07-13T10:27:47;11.65;;;5.50;;
8050;SDS011;4068;42.158;24.732;2023-07-13T10:32:43;9.20;;;5.10;;
8050;SDS011;4068;42.158;24.732;2023-07-13T10:35:10;6.03;;;4.97;;
8050;SDS011;4068;42.158;24.732;2023-07-13T10:37:54;11.52;;;5.00;;
8050;SDS011;4068;42.158;24.732;2023-07-13T10:40:28;6.45;;;5.43;;
8050;SDS011;4068;42.158;24.732;2023-07-13T10:42:59;7.53;;;5.03;;
8050;SDS011;4068;42.158;24.732;2023-07-13T10:45:30;9.88;;;5.05;;
8050;SDS011;4068;42.158;24.732;2023-07-13T10:47:59;5.20;;;4.70;;
8050;SDS011;4068;42.158;24.732;2023-07-13T10:50:26;6.45;;;5.22;;
8050;SDS011;4068;42.158;24.732;2023-07-13T10:52:56;8.15;;;4.93;;
8050;SDS011;4068;42.158;24.732;2023-07-13T10:58:44;6.03;;;5.30;;
8050;SDS011;4068;42.158;24.732;2023-07-13T11:01:13;9.25;;;4.85;;
8050;SDS011;4068;42.158;24.732;2023-07-13T11:06:09;8.80;;;4.57;;
8050;SDS011;4068;42.158;24.732;2023-07-13T11:11:54;8.27;;;4.85;;
8050;SDS011;4068;42.158;24.732;2023-07-13T11:14:04;4.78;;;4.15;;
8050;SDS011;4068;42.158;24.732;2023-07-13T11:16:50;10.77;;;4.53;;
8050;SDS011;4068;42.158;24.732;2023-07-13T11:22:40;7.55;;;4.68;;
8050;SDS011;4068;42.158;24.732;2023-07-13T11:27:25;5.97;;;4.05;;
8050;SDS011;4068;42.158;24.732;2023-07-13T11:30:35;9.02;;;4.10;;
8050;SDS011;4068;42.158;24.732;2023-07-13T11:33:03;4.75;;;4.25;;
8050;SDS011;4068;42.158;24.732;2023-07-13T11:35:31;13.63;;;4.82;;
8050;SDS011;4068;42.158;24.732;2023-07-13T11:38:02;7.40;;;4.90;;
8050;SDS011;4068;42.158;24.732;2023-07-13T11:40:28;7.50;;;5.15;;
8050;SDS011;4068;42.158;24.732;2023-07-13T11:42:59;6.68;;;4.45;;
8050;SDS011;4068;42.158;24.732;2023-07-13T11:45:26;8.10;;;4.13;;
8050;SDS011;4068;42.158;24.732;2023-07-13T11:47:53;8.15;;;4.38;;
8050;SDS011;4068;42.158;24.732;2023-07-13T11:50:20;7.35;;;4.63;;
8050;SDS011;4068;42.158;24.732;2023-07-13T11:52:48;15.18;;;4.93;;
8050;SDS011;4068;42.158;24.732;2023-07-13T11:55:17;8.75;;;4.32;;
8050;SDS011;4068;42.158;24.732;2023-07-13T11:57:49;5.88;;;4.20;;
8050;SDS011;4068;42.158;24.732;2023-07-13T12:00:27;8.60;;;4.28;;
8050;SDS011;4068;42.158;24.732;2023-07-13T12:02:56;11.18;;;4.57;;
8050;SDS011;4068;42.158;24.732;2023-07-13T12:05:24;7.03;;;4.93;;
8050;SDS011;4068;42.158;24.732;2023-07-13T12:07:50;6.68;;;4.40;;
8050;SDS011;4068;42.158;24.732;2023-07-13T12:15:22;18.58;;;4.60;;
8050;SDS011;4068;42.158;24.732;2023-07-13T12:17:49;9.80;;;4.05;;
8050;SDS011;4068;42.158;24.732;2023-07-13T12:20:25;9.77;;;4.20;;
8050;SDS011;4068;42.158;24.732;2023-07-13T12:23:04;7.35;;;5.10;;
8050;SDS011;4068;42.158;24.732;2023-07-13T12:25:31;8.10;;;4.32;;
8050;SDS011;4068;42.158;24.732;2023-07-13T12:27:56;13.13;;;4.78;;
8050;SDS011;4068;42.158;24.732;2023-07-13T12:30:32;6.57;;;4.43;;
8050;SDS011;4068;42.158;24.732;2023-07-13T12:33:08;9.07;;;3.90;;
8050;SDS011;4068;42.158;24.732;2023-07-13T12:35:41;8.10;;;4.45;;
8050;SDS011;4068;42.158;24.732;2023-07-13T12:38:11;9.85;;;4.32;;
8050;SDS011;4068;42.158;24.732;2023-07-13T12:40:37;8.68;;;4.97;;
8050;SDS011;4068;42.158;24.732;2023-07-13T12:43:03;7.20;;;4.13;;
8050;SDS011;4068;42.158;24.732;2023-07-13T12:45:29;10.82;;;4.95;;
8050;SDS011;4068;42.158;24.732;2023-07-13T12:47:57;9.35;;;4.60;;
8050;SDS011;4068;42.158;24.732;2023-07-13T12:50:40;16.60;;;5.30;;
8050;SDS011;4068;42.158;24.732;2023-07-13T12:53:17;8.95;;;5.80;;
8050;SDS011;4068;42.158;24.732;2023-07-13T12:55:49;9.52;;;5.15;;
8050;SDS011;4068;42.158;24.732;2023-07-13T12:58:30;7.80;;;4.28;;
8050;SDS011;4068;42.158;24.732;2023-07-13T13:01:01;5.47;;;4.25;;
8050;SDS011;4068;42.158;24.732;2023-07-13T13:03:32;8.88;;;5.18;;
8050;SDS011;4068;42.158;24.732;2023-07-13T13:06:06;8.07;;;4.97;;
8050;SDS011;4068;42.158;24.732;2023-07-13T13:08:52;12.05;;;4.88;;
8050;SDS011;4068;42.158;24.732;2023-07-13T13:11:19;6.75;;;4.63;;
8050;SDS011;4068;42.158;24.732;2023-07-13T13:13:46;8.27;;;4.43;;
8050;SDS011;4068;42.158;24.732;2023-07-13T13:18:50;8.93;;;4.70;;
8050;SDS011;4068;42.158;24.732;2023-07-13T13:21:17;8.75;;;4.90;;
8050;SDS011;4068;42.158;24.732;2023-07-13T13:23:43;8.52;;;4.22;;
8050;SDS011;4068;42.158;24.732;2023-07-13T13:26:13;7.70;;;4.13;;
8050;SDS011;4068;42.158;24.732;2023-07-13T13:28:41;15.95;;;4.57;;
8050;SDS011;4068;42.158;24.732;2023-07-13T13:31:07;11.98;;;4.30;;
8050;SDS011;4068;42.158;24.732;2023-07-13T13:33:37;13.02;;;4.35;;
8050;SDS011;4068;42.158;24.732;2023-07-13T13:36:09;11.48;;;4.18;;
8050;SDS011;4068;42.158;24.732;2023-07-13T13:38:45;13.95;;;4.90;;
8050;SDS011;4068;42.158;24.732;2023-07-13T13:41:12;10.88;;;5.28;;
8050;SDS011;4068;42.158;24.732;2023-07-13T13:43:42;8.50;;;5.18;;
8050;SDS011;4068;42.158;24.732;2023-07-13T13:46:24;9.82;;;5.13;;
8050;SDS011;4068;42.158;24.732;2023-07-13T13:48:50;9.50;;;5.22;;
8050;SDS011;4068;42.158;24.732;2023-07-13T13:51:20;7.03;;;5.38;;
8050;SDS011;4068;42.158;24.732;2023-07-13T13:53:47;15.13;;;5.63;;
8050;SDS011;4068;42.158;24.732;2023-07-13T13:56:16;10.43;;;5.30;;
8050;SDS011;4068;42.158;24.732;2023-07-13T13:58:43;8.43;;;4.55;;
8050;SDS011;4068;42.158;24.732;2023-07-13T14:01:27;8.65;;;5.03;;
8050;SDS011;4068;42.158;24.732;2023-07-13T14:03:54;15.30;;;5.55;;
8050;SDS011;4068;42.158;24.732;2023-07-13T14:06:21;11.73;;;5.55;;
8050;SDS011;4068;42.158;24.732;2023-07-13T14:08:46;10.05;;;5.13;;
8050;SDS011;4068;42.158;24.732;2023-07-13T14:11:15;12.30;;;5.20;;
8050;SDS011;4068;42.158;24.732;2023-07-13T14:13:44;12.65;;;5.25;;
8050;SDS011;4068;42.158;24.732;2023-07-13T14:16:17;11.63;;;6.03;;
8050;SDS011;4068;42.158;24.732;2023-07-13T14:18:45;10.68;;;5.85;;
8050;SDS011;4068;42.158;24.732;2023-07-13T14:21:15;12.10;;;5.60;;
8050;SDS011;4068;42.158;24.732;2023-07-13T14:23:43;11.75;;;5.57;;
8050;SDS011;4068;42.158;24.732;2023-07-13T14:26:11;16.15;;;5.20;;
8050;SDS011;4068;42.158;24.732;2023-07-13T14:28:38;14.45;;;5.72;;
8050;SDS011;4068;42.158;24.732;2023-07-13T14:31:08;13.80;;;5.28;;
8050;SDS011;4068;42.158;24.732;2023-07-13T14:33:35;10.00;;;4.88;;
8050;SDS011;4068;42.158;24.732;2023-07-13T14:36:00;9.55;;;5.65;;
8050;SDS011;4068;42.158;24.732;2023-07-13T14:38:26;12.68;;;5.22;;
8050;SDS011;4068;42.158;24.732;2023-07-13T14:40:52;8.10;;;5.03;;
8050;SDS011;4068;42.158;24.732;2023-07-13T14:43:17;12.52;;;5.47;;
8050;SDS011;4068;42.158;24.732;2023-07-13T14:45:47;11.30;;;5.60;;
8050;SDS011;4068;42.158;24.732;2023-07-13T14:48:19;11.05;;;5.53;;
8050;SDS011;4068;42.158;24.732;2023-07-13T14:50:49;16.77;;;5.90;;
8050;SDS011;4068;42.158;24.732;2023-07-13T14:53:18;8.40;;;5.15;;
8050;SDS011;4068;42.158;24.732;2023-07-13T14:55:44;10.48;;;5.60;;
8050;SDS011;4068;42.158;24.732;2023-07-13T14:58:09;14.27;;;7.20;;
8050;SDS011;4068;42.158;24.732;2023-07-13T15:00:35;14.43;;;5.88;;
8050;SDS011;4068;42.158;24.732;2023-07-13T15:03:02;15.50;;;5.38;;
8050;SDS011;4068;42.158;24.732;2023-07-13T15:05:31;13.55;;;5.88;;
8050;SDS011;4068;42.158;24.732;2023-07-13T15:07:58;21.02;;;6.07;;
8050;SDS011;4068;42.158;24.732;2023-07-13T15:10:27;15.18;;;5.53;;
8050;SDS011;4068;42.158;24.732;2023-07-13T15:12:58;11.70;;;5.70;;
8050;SDS011;4068;42.158;24.732;2023-07-13T15:15:38;18.67;;;5.38;;
8050;SDS011;4068;42.158;24.732;2023-07-13T15:18:11;13.45;;;6.32;;
8050;SDS011;4068;42.158;24.732;2023-07-13T15:20:39;19.00;;;6.35;;
8050;SDS011;4068;42.158;24.732;2023-07-13T15:23:05;15.25;;;5.53;;
8050;SDS011;4068;42.158;24.732;2023-07-13T15:25:31;10.38;;;5.60;;
8050;SDS011;4068;42.158;24.732;2023-07-13T15:27:58;11.82;;;5.28;;
8050;SDS011;4068;42.158;24.732;2023-07-13T15:30:31;14.23;;;5.80;;
8050;SDS011;4068;42.158;24.732;2023-07-13T15:33:11;8.57;;;5.40;;
8050;SDS011;4068;42.158;24.732;2023-07-13T15:35:55;12.85;;;5.63;;